Portada
METAR-TAF:

METAR-TAF

Aeroports :

Khajuraho, Índia

latitud: 24-49-02N, longitud: 79-55-07E, altitud: 222 m

Observació

L'informe es va fer fa 3 hores i 52 minuts, a les 12:00 UTC
Vent 6 kt del Nord-Est
Temperatura 37°C
Humitat 42%
Pressió 999 hPa
Visibilitat: 6000 m
Escasses núvols a una alçada de 2000 ft

METAR: VEKO 291200Z 05006KT 6000 FEW020 37/22 Q0999

Hora: 21:22 (15:52 UTC)

Pronòstic

L'informe es va fer fa 28 hores i 52 minuts, a les 11:00 UTC
Pronòstic vàlid del 28 a les 12 UTC al 28 a les 21 UTC
Vent 8 kt del Oest
Visibilitat: 6000 m
Núvols disperses a una alçada de 2000 ft
Evolucionant progressivament
l' 28 a les 18 UTC al 28 a les 20 UTC
Vent 10 kt del Sud-Oest
Visibilitat: 6000 m
Escasses núvols a una alçada de 3000 ft
Núvols disperses a una alçada de 10000 ft

TAF: VEKO 281100Z 2812/2821 27008KT 6000 SCT020 BECMG 2818/2820 22010KT 6000 FEW030 SCT100

Observacions i pronòstics meteorològics de més de 4000 aeroports (METAR i TAF).

Les estacions disponibles són els punts grocs i vermells al mapa.

Posi el ratolí al punt desitjat per veure el nom de l'estació.

Feu clic per veure les observacions i els pronòstics meteorològics.

Per canviar el mapa: feu clic els botons verds amb una creu de color negre per apropar; al botó verd amb un guió per allunyar la imatge; o en les fletxes verdes per a mapes adjacents.


METAR-TAF: